createdAt,value
2022-08-21T00:03:08.836Z,18.50
2022-08-21T00:08:11.209Z,18.50
2022-08-21T00:13:13.601Z,18.40
2022-08-21T00:18:21.630Z,18.40
2022-08-21T00:23:24.072Z,18.40
2022-08-21T00:28:26.089Z,18.40
2022-08-21T00:33:31.466Z,18.30
2022-08-21T00:38:33.673Z,18.30
2022-08-21T00:43:37.860Z,18.20
2022-08-21T00:48:40.842Z,18.20
2022-08-21T00:53:45.330Z,18.20
2022-08-21T00:58:55.280Z,18.10
2022-08-21T01:03:57.232Z,18.10
2022-08-21T01:08:59.198Z,18.00
2022-08-21T01:14:01.305Z,18.00
2022-08-21T01:19:03.237Z,18.00
2022-08-21T01:24:05.641Z,17.90
2022-08-21T01:29:28.258Z,18.00
2022-08-21T01:34:30.097Z,17.90
2022-08-21T01:39:32.606Z,18.00
2022-08-21T01:44:34.747Z,18.00
2022-08-21T01:49:37.646Z,18.10
2022-08-21T01:54:39.767Z,18.10
2022-08-21T01:59:41.680Z,18.20
2022-08-21T02:04:43.640Z,18.20
2022-08-21T02:09:46.848Z,18.20
2022-08-21T02:14:48.729Z,18.20
2022-08-21T02:19:50.653Z,18.10
2022-08-21T02:24:54.378Z,18.10
2022-08-21T02:29:58.273Z,18.00
2022-08-21T02:35:00.134Z,18.00
2022-08-21T02:40:02.349Z,18.00
2022-08-21T02:45:04.485Z,18.00
2022-08-21T02:50:07.716Z,17.90
2022-08-21T02:55:09.546Z,17.90
2022-08-21T03:00:13.825Z,17.90
2022-08-21T03:05:16.469Z,17.90
2022-08-21T03:10:18.316Z,17.90
2022-08-21T03:15:22.296Z,17.90
2022-08-21T03:20:26.026Z,17.90
2022-08-21T03:25:40.057Z,17.90
2022-08-21T03:30:44.381Z,17.90
2022-08-21T03:35:49.870Z,17.90
2022-08-21T03:40:51.753Z,17.90
2022-08-21T03:45:53.661Z,17.80
2022-08-21T03:50:55.834Z,17.90
2022-08-21T03:55:57.666Z,17.90
2022-08-21T04:01:00.752Z,17.90
2022-08-21T04:06:02.617Z,17.90
2022-08-21T04:11:05.941Z,17.90
2022-08-21T04:16:08.925Z,17.90
2022-08-21T04:21:11.471Z,17.80
2022-08-21T04:26:15.432Z,17.80
2022-08-21T04:31:17.318Z,17.80
2022-08-21T04:36:20.904Z,17.80
2022-08-21T04:41:28.307Z,17.90
2022-08-21T04:46:30.746Z,18.00
2022-08-21T04:51:35.506Z,18.00
2022-08-21T04:56:40.295Z,18.10
2022-08-21T05:01:42.927Z,18.20
2022-08-21T05:06:47.770Z,18.20
2022-08-21T05:11:49.900Z,18.30
2022-08-21T05:16:52.427Z,18.30
2022-08-21T05:21:54.822Z,18.40
2022-08-21T05:26:57.241Z,18.40
2022-08-21T05:31:59.215Z,18.50
2022-08-21T05:37:05.599Z,18.50
2022-08-21T05:42:09.471Z,18.60
2022-08-21T05:47:12.627Z,18.70
2022-08-21T05:52:19.946Z,18.70
2022-08-21T05:57:22.695Z,18.80
2022-08-21T06:02:24.659Z,18.80
2022-08-21T06:07:26.616Z,18.90
2022-08-21T06:12:28.621Z,19.00
2022-08-21T06:17:30.578Z,19.00
2022-08-21T06:22:32.951Z,19.10
2022-08-21T06:27:34.777Z,19.20
2022-08-21T06:32:37.366Z,19.30
2022-08-21T06:37:39.214Z,19.50
2022-08-21T06:42:42.940Z,19.70
2022-08-21T06:48:18.904Z,19.80
2022-08-21T06:53:21.689Z,19.90
2022-08-21T06:58:23.537Z,20.00
2022-08-21T07:03:31.110Z,20.00
2022-08-21T07:08:32.926Z,20.10
2022-08-21T07:13:34.779Z,20.20
2022-08-21T07:18:36.597Z,20.20
2022-08-21T07:23:42.470Z,20.20
2022-08-21T07:28:49.741Z,20.20
2022-08-21T07:33:55.414Z,20.10
2022-08-21T07:38:57.634Z,20.10
2022-08-21T07:44:00.235Z,20.10
2022-08-21T07:49:02.119Z,20.10
2022-08-21T07:54:04.156Z,20.20
2022-08-21T07:59:09.726Z,20.30
2022-08-21T08:04:16.587Z,20.30
2022-08-21T08:09:18.488Z,20.40
2022-08-21T08:14:20.546Z,20.40
2022-08-21T08:19:36.543Z,20.40
2022-08-21T08:24:39.869Z,20.20
2022-08-21T08:29:41.821Z,20.20
2022-08-21T08:34:44.216Z,20.40
2022-08-21T08:39:46.740Z,20.70
2022-08-21T08:45:01.963Z,21.10
2022-08-21T08:50:19.694Z,21.30
2022-08-21T08:55:37.452Z,21.30
2022-08-21T09:00:39.519Z,21.80
2022-08-21T09:05:47.749Z,22.10
2022-08-21T09:10:49.841Z,22.30
2022-08-21T09:16:27.143Z,22.30
2022-08-21T09:21:56.357Z,22.50
2022-08-21T09:27:09.966Z,22.50
2022-08-21T09:32:20.901Z,22.50
2022-08-21T09:37:22.893Z,22.40
2022-08-21T09:42:33.269Z,22.00
2022-08-21T09:47:37.970Z,22.00
2022-08-21T09:52:52.968Z,21.90
2022-08-21T09:57:55.308Z,21.80
2022-08-21T10:03:20.015Z,21.70
2022-08-21T10:08:24.511Z,21.40
2022-08-21T10:14:02.768Z,21.30
2022-08-21T10:19:27.191Z,21.20
2022-08-21T10:24:39.681Z,21.10
2022-08-21T10:30:01.504Z,21.10
2022-08-21T10:35:18.919Z,21.10
2022-08-21T10:40:27.475Z,21.30
2022-08-21T10:45:54.911Z,21.30
2022-08-21T10:51:29.098Z,21.40
2022-08-21T10:56:34.194Z,21.40
2022-08-21T11:01:48.517Z,21.60
2022-08-21T11:07:00.766Z,21.80
2022-08-21T11:12:32.731Z,22.00
2022-08-21T11:17:47.419Z,22.10
2022-08-21T11:23:03.164Z,22.40
2022-08-21T11:28:20.817Z,22.50
2022-08-21T11:33:32.891Z,22.70
2022-08-21T11:38:41.364Z,22.60
2022-08-21T11:43:47.515Z,22.50
2022-08-21T11:49:03.020Z,22.40
2022-08-21T11:54:40.504Z,22.40
2022-08-21T11:59:48.504Z,22.30
2022-08-21T12:05:08.455Z,22.20
2022-08-21T12:10:16.015Z,22.10
2022-08-21T12:15:22.092Z,22.00
2022-08-21T12:20:36.314Z,21.90
2022-08-21T12:26:01.040Z,21.90
2022-08-21T12:31:06.727Z,22.00
2022-08-21T12:36:16.745Z,22.20
2022-08-21T12:41:35.514Z,22.10
2022-08-21T12:46:45.636Z,22.00
2022-08-21T12:51:59.009Z,21.60
2022-08-21T12:57:07.311Z,21.50
2022-08-21T13:02:21.470Z,21.50
2022-08-21T13:07:28.591Z,21.50
2022-08-21T13:12:32.478Z,21.40
2022-08-21T13:17:38.712Z,21.50
2022-08-21T13:22:43.076Z,21.50
2022-08-21T13:28:06.832Z,21.70
2022-08-21T13:33:13.262Z,21.70
2022-08-21T13:38:16.065Z,21.80
2022-08-21T13:43:26.324Z,22.00
2022-08-21T13:48:31.263Z,22.00
2022-08-21T13:53:46.303Z,22.10
2022-08-21T13:58:48.359Z,22.10
2022-08-21T14:03:52.274Z,22.00
2022-08-21T14:09:13.605Z,21.90
2022-08-21T14:14:29.099Z,21.80
2022-08-21T14:19:43.133Z,21.80
2022-08-21T14:24:45.039Z,21.70
2022-08-21T14:29:59.328Z,21.50
2022-08-21T14:35:01.300Z,21.40
2022-08-21T14:40:05.463Z,21.40
2022-08-21T14:45:15.331Z,21.40
2022-08-21T14:50:18.747Z,21.50
2022-08-21T14:55:20.777Z,21.50
2022-08-21T15:00:35.610Z,21.40
2022-08-21T15:05:38.254Z,21.40
2022-08-21T15:10:57.102Z,21.30
2022-08-21T15:16:03.067Z,21.20
2022-08-21T15:21:05.023Z,21.20
2022-08-21T15:26:07.031Z,21.20
2022-08-21T15:31:08.993Z,21.20
2022-08-21T15:36:10.928Z,21.20
2022-08-21T15:41:13.449Z,21.20
2022-08-21T15:46:17.720Z,21.10
2022-08-21T15:51:19.746Z,21.10
2022-08-21T15:56:24.493Z,21.10
2022-08-21T16:01:29.017Z,21.20
2022-08-21T16:06:55.213Z,21.20
2022-08-21T16:12:01.716Z,21.20
2022-08-21T16:17:08.168Z,21.20
2022-08-21T16:22:10.141Z,21.30
2022-08-21T16:27:12.386Z,21.30
2022-08-21T16:32:17.278Z,21.30
2022-08-21T16:37:23.855Z,21.30
2022-08-21T16:42:27.097Z,21.30
2022-08-21T16:47:29.051Z,21.20
2022-08-21T16:52:31.905Z,21.20
2022-08-21T16:57:33.918Z,21.10
2022-08-21T17:02:38.060Z,21.10
2022-08-21T17:07:40.187Z,21.10
2022-08-21T17:12:44.141Z,21.00
2022-08-21T17:17:46.325Z,21.00
2022-08-21T17:22:48.929Z,21.00
2022-08-21T17:27:51.262Z,21.00
2022-08-21T17:32:55.720Z,20.90
2022-08-21T17:37:57.951Z,20.90
2022-08-21T17:43:00.221Z,20.90
2022-08-21T17:48:02.568Z,20.80
2022-08-21T17:53:04.854Z,20.80
2022-08-21T17:58:09.582Z,20.80
2022-08-21T18:03:15.822Z,20.80
2022-08-21T18:08:18.897Z,20.70
2022-08-21T18:13:26.737Z,20.70
2022-08-21T18:18:34.999Z,20.70
2022-08-21T18:23:44.308Z,20.60
2022-08-21T18:28:47.541Z,20.60
2022-08-21T18:34:21.022Z,20.50
2022-08-21T18:39:40.600Z,20.50
2022-08-21T18:44:47.557Z,20.50
2022-08-21T18:49:51.566Z,20.40
2022-08-21T18:54:53.653Z,20.40
2022-08-21T18:59:59.731Z,20.40
2022-08-21T19:05:03.502Z,20.30
2022-08-21T19:10:27.598Z,20.30
2022-08-21T19:15:30.715Z,20.20
2022-08-21T19:20:36.892Z,20.20
2022-08-21T19:25:41.878Z,20.00
2022-08-21T19:30:52.076Z,19.80
2022-08-21T19:35:54.373Z,19.50
2022-08-21T19:40:59.414Z,19.30
2022-08-21T19:46:01.824Z,19.20
2022-08-21T19:51:07.044Z,19.00
2022-08-21T19:56:12.751Z,18.90
2022-08-21T20:01:17.969Z,18.80
2022-08-21T20:06:20.677Z,18.60
2022-08-21T20:11:35.462Z,18.50
2022-08-21T20:16:38.006Z,18.30
2022-08-21T20:21:44.671Z,18.10
2022-08-21T20:26:54.629Z,18.00
2022-08-21T20:31:58.615Z,17.90
2022-08-21T20:37:02.141Z,17.80
2022-08-21T20:42:09.157Z,17.60
2022-08-21T20:47:14.284Z,17.70
2022-08-21T20:52:20.123Z,17.60
2022-08-21T20:57:31.717Z,17.60
2022-08-21T21:02:40.530Z,17.60
2022-08-21T21:08:23.858Z,17.60
2022-08-21T21:13:39.077Z,17.50
2022-08-21T21:18:56.016Z,17.50
2022-08-21T21:24:29.121Z,17.40
2022-08-21T21:29:42.108Z,17.40
2022-08-21T21:34:45.552Z,17.40
2022-08-21T21:39:56.706Z,17.30
2022-08-21T21:45:14.345Z,17.20
2022-08-21T21:50:45.385Z,17.10
2022-08-21T21:55:56.635Z,17.00
2022-08-21T22:01:15.334Z,17.00
2022-08-21T22:06:28.284Z,16.90
2022-08-21T22:11:33.369Z,16.90
2022-08-21T22:16:37.209Z,16.80
2022-08-21T22:21:40.614Z,16.80
2022-08-21T22:26:48.235Z,16.70
2022-08-21T22:32:05.964Z,16.70
2022-08-21T22:37:11.340Z,16.60
2022-08-21T22:42:21.367Z,16.60
2022-08-21T22:47:43.443Z,16.60
2022-08-21T22:52:48.783Z,16.50
2022-08-21T22:58:01.689Z,16.50
2022-08-21T23:03:03.928Z,16.50
2022-08-21T23:08:36.296Z,16.50
2022-08-21T23:13:42.386Z,16.50
2022-08-21T23:19:23.361Z,16.50
2022-08-21T23:24:39.925Z,16.50
2022-08-21T23:30:19.055Z,16.40
2022-08-21T23:36:04.630Z,16.50
2022-08-21T23:41:14.173Z,16.40
2022-08-21T23:46:40.936Z,16.40
2022-08-21T23:52:36.589Z,16.40
2022-08-21T23:57:53.628Z,16.40
